sensor_id;sensor_type;location;lat;lon;timestamp;pressure;altitude;pressure_sealevel;temperature;humidity
39265;BME280;42646;51.910;7.724;2023-04-10T00:00:13;101685.78;;;4.81;89.96
39265;BME280;42646;51.910;7.724;2023-04-10T00:02:40;101673.59;;;4.78;90.65
39265;BME280;42646;51.910;7.724;2023-04-10T00:05:10;101674.59;;;4.76;90.90
39265;BME280;42646;51.910;7.724;2023-04-10T00:07:39;101669.41;;;4.74;91.67
39265;BME280;42646;51.910;7.724;2023-04-10T00:10:08;101670.41;;;4.72;92.13
39265;BME280;42646;51.910;7.724;2023-04-10T00:12:35;101653.88;;;4.68;92.89
39265;BME280;42646;51.910;7.724;2023-04-10T00:15:04;101655.75;;;4.66;93.41
39265;BME280;42646;51.910;7.724;2023-04-10T00:17:31;101660.25;;;4.64;93.71
39265;BME280;42646;51.910;7.724;2023-04-10T00:19:59;101645.41;;;4.62;94.08
39265;BME280;42646;51.910;7.724;2023-04-10T00:22:28;101645.41;;;4.62;94.03
39265;BME280;42646;51.910;7.724;2023-04-10T00:24:57;101641.94;;;4.61;94.02
39265;BME280;42646;51.910;7.724;2023-04-10T00:27:25;101641.09;;;4.61;94.00
39265;BME280;42646;51.910;7.724;2023-04-10T00:29:53;101638.31;;;4.64;94.35
39265;BME280;42646;51.910;7.724;2023-04-10T00:32:21;101640.84;;;4.65;94.31
39265;BME280;42646;51.910;7.724;2023-04-10T00:34:49;101636.44;;;4.66;94.19
39265;BME280;42646;51.910;7.724;2023-04-10T00:37:17;101638.13;;;4.67;94.46
39265;BME280;42646;51.910;7.724;2023-04-10T00:39:45;101631.88;;;4.69;94.36
39265;BME280;42646;51.910;7.724;2023-04-10T00:42:14;101628.31;;;4.70;94.28
39265;BME280;42646;51.910;7.724;2023-04-10T00:44:43;101625.69;;;4.70;94.49
39265;BME280;42646;51.910;7.724;2023-04-10T00:47:12;101627.50;;;4.68;94.47
39265;BME280;42646;51.910;7.724;2023-04-10T00:49:41;101621.25;;;4.71;94.25
39265;BME280;42646;51.910;7.724;2023-04-10T00:52:09;101615.97;;;4.71;94.34
39265;BME280;42646;51.910;7.724;2023-04-10T00:54:37;101615.13;;;4.70;94.67
39265;BME280;42646;51.910;7.724;2023-04-10T00:57:06;101612.41;;;4.72;94.50
39265;BME280;42646;51.910;7.724;2023-04-10T00:59:35;101607.31;;;4.69;94.96
39265;BME280;42646;51.910;7.724;2023-04-10T01:02:03;101612.63;;;4.67;94.89
39265;BME280;42646;51.910;7.724;2023-04-10T01:04:31;101604.72;;;4.67;94.94
39265;BME280;42646;51.910;7.724;2023-04-10T01:07:07;101602.81;;;4.71;95.32
39265;BME280;42646;51.910;7.724;2023-04-10T01:09:40;101607.06;;;4.73;95.01
39265;BME280;42646;51.910;7.724;2023-04-10T01:12:24;101602.63;;;4.74;95.40
39265;BME280;42646;51.910;7.724;2023-04-10T01:15:03;101604.38;;;4.75;95.33
39265;BME280;42646;51.910;7.724;2023-04-10T01:17:40;101600.78;;;4.76;95.66
39265;BME280;42646;51.910;7.724;2023-04-10T01:20:12;101604.91;;;4.81;95.39
39265;BME280;42646;51.910;7.724;2023-04-10T01:22:48;101606.69;;;4.81;95.64
39265;BME280;42646;51.910;7.724;2023-04-10T01:25:32;101607.59;;;4.80;95.59
39265;BME280;42646;51.910;7.724;2023-04-10T01:28:18;101604.09;;;4.79;95.54
39265;BME280;42646;51.910;7.724;2023-04-10T01:30:51;101611.25;;;4.77;95.50
39265;BME280;42646;51.910;7.724;2023-04-10T01:33:21;101619.16;;;4.77;95.60
39265;BME280;42646;51.910;7.724;2023-04-10T01:35:54;101615.69;;;4.77;95.21
39265;BME280;42646;51.910;7.724;2023-04-10T01:38:27;101614.91;;;4.75;95.34
39265;BME280;42646;51.910;7.724;2023-04-10T01:40:57;101611.47;;;4.73;95.59
39265;BME280;42646;51.910;7.724;2023-04-10T01:43:28;101607.13;;;4.72;95.25
39265;BME280;42646;51.910;7.724;2023-04-10T01:46:00;101603.78;;;4.68;96.15
39265;BME280;42646;51.910;7.724;2023-04-10T01:48:29;101600.38;;;4.66;96.40
39265;BME280;42646;51.910;7.724;2023-04-10T01:51:02;101602.41;;;4.61;96.52
39265;BME280;42646;51.910;7.724;2023-04-10T01:53:33;101591.22;;;4.56;96.99
39265;BME280;42646;51.910;7.724;2023-04-10T01:56:04;101587.06;;;4.52;97.54
39265;BME280;42646;51.910;7.724;2023-04-10T01:58:40;101582.78;;;4.49;97.79
39265;BME280;42646;51.910;7.724;2023-04-10T02:01:17;101581.16;;;4.47;98.03
39265;BME280;42646;51.910;7.724;2023-04-10T02:03:56;101568.97;;;4.44;98.52
39265;BME280;42646;51.910;7.724;2023-04-10T02:06:28;101573.50;;;4.42;98.52
39265;BME280;42646;51.910;7.724;2023-04-10T02:09:27;101572.72;;;4.40;98.33
39265;BME280;42646;51.910;7.724;2023-04-10T02:12:01;101576.44;;;4.36;98.20
39265;BME280;42646;51.910;7.724;2023-04-10T02:14:35;101583.56;;;4.34;97.50
39265;BME280;42646;51.910;7.724;2023-04-10T02:17:07;101580.13;;;4.32;97.09
39265;BME280;42646;51.910;7.724;2023-04-10T02:19:37;101575.78;;;4.31;97.15
39265;BME280;42646;51.910;7.724;2023-04-10T02:22:05;101577.75;;;4.27;97.41
39265;BME280;42646;51.910;7.724;2023-04-10T02:24:34;101572.53;;;4.26;97.79
39265;BME280;42646;51.910;7.724;2023-04-10T02:27:02;101576.19;;;4.23;98.30
39265;BME280;42646;51.910;7.724;2023-04-10T02:29:31;101569.28;;;4.21;98.90
39265;BME280;42646;51.910;7.724;2023-04-10T02:32:01;101569.34;;;4.19;99.17
39265;BME280;42646;51.910;7.724;2023-04-10T02:34:31;101571.31;;;4.16;99.13
39265;BME280;42646;51.910;7.724;2023-04-10T02:36:59;101572.28;;;4.13;99.10
39265;BME280;42646;51.910;7.724;2023-04-10T02:39:27;101564.59;;;4.09;98.51
39265;BME280;42646;51.910;7.724;2023-04-10T02:41:55;101570.97;;;4.05;98.40
39265;BME280;42646;51.910;7.724;2023-04-10T02:44:23;101572.03;;;4.00;97.70
39265;BME280;42646;51.910;7.724;2023-04-10T02:46:52;101566.97;;;3.96;96.91
39265;BME280;42646;51.910;7.724;2023-04-10T02:49:20;101569.78;;;3.93;96.90
39265;BME280;42646;51.910;7.724;2023-04-10T02:51:49;101568.13;;;3.90;96.89
39265;BME280;42646;51.910;7.724;2023-04-10T02:54:17;101568.28;;;3.87;97.01
39265;BME280;42646;51.910;7.724;2023-04-10T02:56:45;101565.00;;;3.82;96.29
39265;BME280;42646;51.910;7.724;2023-04-10T02:59:14;101564.25;;;3.80;96.63
39265;BME280;42646;51.910;7.724;2023-04-10T03:01:42;101563.44;;;3.78;96.56
39265;BME280;42646;51.910;7.724;2023-04-10T03:04:11;101560.75;;;3.80;96.92
39265;BME280;42646;51.910;7.724;2023-04-10T03:06:40;101561.91;;;3.74;97.96
39265;BME280;42646;51.910;7.724;2023-04-10T03:09:09;101553.28;;;3.70;98.68
39265;BME280;42646;51.910;7.724;2023-04-10T03:11:39;101551.66;;;3.68;99.27
39265;BME280;42646;51.910;7.724;2023-04-10T03:14:07;101542.97;;;3.66;99.79
39265;BME280;42646;51.910;7.724;2023-04-10T03:16:35;101549.25;;;3.63;100.00
39265;BME280;42646;51.910;7.724;2023-04-10T03:19:03;101540.53;;;3.61;100.00
39265;BME280;42646;51.910;7.724;2023-04-10T03:21:31;101541.44;;;3.62;100.00
39265;BME280;42646;51.910;7.724;2023-04-10T03:23:59;101542.31;;;3.61;100.00
39265;BME280;42646;51.910;7.724;2023-04-10T03:26:33;101536.22;;;3.60;100.00
39265;BME280;42646;51.910;7.724;2023-04-10T03:29:00;101538.00;;;3.60;100.00
39265;BME280;42646;51.910;7.724;2023-04-10T03:31:28;101526.69;;;3.58;100.00
39265;BME280;42646;51.910;7.724;2023-04-10T03:33:59;101526.84;;;3.55;100.00
39265;BME280;42646;51.910;7.724;2023-04-10T03:36:27;101524.28;;;3.53;100.00
39265;BME280;42646;51.910;7.724;2023-04-10T03:38:59;101524.34;;;3.52;100.00
39265;BME280;42646;51.910;7.724;2023-04-10T03:41:29;101513.00;;;3.51;100.00
39265;BME280;42646;51.910;7.724;2023-04-10T03:43:58;101513.03;;;3.49;100.00
39265;BME280;42646;51.910;7.724;2023-04-10T03:46:28;101517.44;;;3.49;100.00
39265;BME280;42646;51.910;7.724;2023-04-10T03:48:57;101520.06;;;3.49;100.00
39265;BME280;42646;51.910;7.724;2023-04-10T03:51:25;101515.81;;;3.46;100.00
39265;BME280;42646;51.910;7.724;2023-04-10T03:53:53;101513.28;;;3.45;100.00
39265;BME280;42646;51.910;7.724;2023-04-10T03:56:22;101522.09;;;3.44;100.00
39265;BME280;42646;51.910;7.724;2023-04-10T03:58:51;101518.66;;;3.42;100.00
39265;BME280;42646;51.910;7.724;2023-04-10T04:01:21;101510.78;;;3.42;100.00
39265;BME280;42646;51.910;7.724;2023-04-10T04:04:04;101515.19;;;3.41;100.00
39265;BME280;42646;51.910;7.724;2023-04-10T04:06:51;101511.78;;;3.39;100.00
39265;BME280;42646;51.910;7.724;2023-04-10T04:09:27;101510.97;;;3.37;100.00
39265;BME280;42646;51.910;7.724;2023-04-10T04:12:12;101518.09;;;3.35;100.00
39265;BME280;42646;51.910;7.724;2023-04-10T04:15:08;101519.88;;;3.35;100.00
39265;BME280;42646;51.910;7.724;2023-04-10T04:18:07;101525.22;;;3.33;100.00
39265;BME280;42646;51.910;7.724;2023-04-10T04:20:41;101522.59;;;3.33;100.00
39265;BME280;42646;51.910;7.724;2023-04-10T04:23:14;101519.03;;;3.34;100.00
39265;BME280;42646;51.910;7.724;2023-04-10T04:26:02;101514.69;;;3.33;100.00
39265;BME280;42646;51.910;7.724;2023-04-10T04:28:33;101524.28;;;3.34;100.00
39265;BME280;42646;51.910;7.724;2023-04-10T04:31:15;101521.66;;;3.34;100.00
39265;BME280;42646;51.910;7.724;2023-04-10T04:34:31;101521.66;;;3.34;100.00
39265;BME280;42646;51.910;7.724;2023-04-10T04:37:25;101525.22;;;3.33;100.00
39265;BME280;42646;51.910;7.724;2023-04-10T04:40:16;101526.91;;;3.34;100.00
39265;BME280;42646;51.910;7.724;2023-04-10T04:43:02;101520.81;;;3.34;100.00
39265;BME280;42646;51.910;7.724;2023-04-10T04:45:49;101519.03;;;3.34;100.00
39265;BME280;42646;51.910;7.724;2023-04-10T04:48:36;101519.97;;;3.33;100.00
39265;BME280;42646;51.910;7.724;2023-04-10T04:51:21;101526.91;;;3.34;100.00
39265;BME280;42646;51.910;7.724;2023-04-10T04:54:01;101518.25;;;3.32;100.00
39265;BME280;42646;51.910;7.724;2023-04-10T04:56:48;101523.44;;;3.34;100.00
39265;BME280;42646;51.910;7.724;2023-04-10T04:59:29;101517.31;;;3.33;100.00
39265;BME280;42646;51.910;7.724;2023-04-10T05:02:13;101516.47;;;3.33;100.00
39265;BME280;42646;51.910;7.724;2023-04-10T05:05:02;101513.84;;;3.33;100.00
39265;BME280;42646;51.910;7.724;2023-04-10T05:07:46;101512.06;;;3.33;100.00
39265;BME280;42646;51.910;7.724;2023-04-10T05:10:46;101505.88;;;3.34;100.00
39265;BME280;42646;51.910;7.724;2023-04-10T05:13:39;101498.69;;;3.38;100.00
39265;BME280;42646;51.910;7.724;2023-04-10T05:16:25;101495.84;;;3.42;100.00
39265;BME280;42646;51.910;7.724;2023-04-10T05:19:10;101491.22;;;3.47;100.00
39265;BME280;42646;51.910;7.724;2023-04-10T05:21:57;101490.09;;;3.53;100.00
39265;BME280;42646;51.910;7.724;2023-04-10T05:24:50;101496.84;;;3.59;100.00
39265;BME280;42646;51.910;7.724;2023-04-10T05:27:34;101500.88;;;3.66;100.00
39265;BME280;42646;51.910;7.724;2023-04-10T05:30:23;101495.19;;;3.75;100.00
39265;BME280;42646;51.910;7.724;2023-04-10T05:33:20;101506.03;;;3.86;100.00
39265;BME280;42646;51.910;7.724;2023-04-10T05:36:09;101497.69;;;3.95;100.00
39265;BME280;42646;51.910;7.724;2023-04-10T05:39:01;101496.31;;;4.06;100.00
39265;BME280;42646;51.910;7.724;2023-04-10T05:41:58;101498.34;;;4.18;100.00
39265;BME280;42646;51.910;7.724;2023-04-10T05:44:31;101501.38;;;4.27;100.00
39265;BME280;42646;51.910;7.724;2023-04-10T05:47:03;101509.72;;;4.36;100.00
39265;BME280;42646;51.910;7.724;2023-04-10T05:49:51;101503.06;;;4.46;100.00
39265;BME280;42646;51.910;7.724;2023-04-10T05:52:29;101503.50;;;4.54;100.00
39265;BME280;42646;51.910;7.724;2023-04-10T05:55:04;101508.47;;;4.60;100.00
39265;BME280;42646;51.910;7.724;2023-04-10T05:57:55;101502.88;;;4.66;100.00
39265;BME280;42646;51.910;7.724;2023-04-10T06:00:32;101503.41;;;4.73;100.00
39265;BME280;42646;51.910;7.724;2023-04-10T06:03:32;101500.22;;;4.83;100.00
39265;BME280;42646;51.910;7.724;2023-04-10T06:06:26;101492.59;;;4.95;100.00
39265;BME280;42646;51.910;7.724;2023-04-10T06:08:55;101493.13;;;5.01;100.00
39265;BME280;42646;51.910;7.724;2023-04-10T06:11:23;101493.72;;;5.06;100.00
39265;BME280;42646;51.910;7.724;2023-04-10T06:13:55;101492.53;;;5.12;100.00
39265;BME280;42646;51.910;7.724;2023-04-10T06:16:31;101491.38;;;5.18;100.00
39265;BME280;42646;51.910;7.724;2023-04-10T06:18:59;101479.72;;;5.22;99.78
39265;BME280;42646;51.910;7.724;2023-04-10T06:21:28;101480.22;;;5.28;99.49
39265;BME280;42646;51.910;7.724;2023-04-10T06:23:55;101482.59;;;5.33;99.79
39265;BME280;42646;51.910;7.724;2023-04-10T06:26:23;101484.91;;;5.39;99.60
39265;BME280;42646;51.910;7.724;2023-04-10T06:28:51;101479.13;;;5.48;99.46
39265;BME280;42646;51.910;7.724;2023-04-10T06:31:20;101474.94;;;5.60;99.17
39265;BME280;42646;51.910;7.724;2023-04-10T06:33:49;101465.28;;;5.75;99.12
39265;BME280;42646;51.910;7.724;2023-04-10T06:36:17;101454.81;;;5.89;99.15
39265;BME280;42646;51.910;7.724;2023-04-10T06:38:51;101455.72;;;6.04;100.00
39265;BME280;42646;51.910;7.724;2023-04-10T06:41:19;101453.44;;;6.28;100.00
39265;BME280;42646;51.910;7.724;2023-04-10T06:43:53;101461.88;;;6.49;99.17
39265;BME280;42646;51.910;7.724;2023-04-10T06:46:22;101459.53;;;6.73;95.57
39265;BME280;42646;51.910;7.724;2023-04-10T06:48:50;101458.59;;;7.02;94.74
39265;BME280;42646;51.910;7.724;2023-04-10T06:51:17;101461.38;;;7.28;92.00
39265;BME280;42646;51.910;7.724;2023-04-10T06:53:45;101452.72;;;7.53;90.62
39265;BME280;42646;51.910;7.724;2023-04-10T06:56:13;101446.88;;;7.74;88.72
39265;BME280;42646;51.910;7.724;2023-04-10T06:58:42;101446.50;;;7.93;88.00
39265;BME280;42646;51.910;7.724;2023-04-10T07:01:11;101438.84;;;8.16;86.99
39265;BME280;42646;51.910;7.724;2023-04-10T07:03:41;101450.16;;;8.45;84.63
39265;BME280;42646;51.910;7.724;2023-04-10T07:06:10;101446.09;;;8.65;83.82
39265;BME280;42646;51.910;7.724;2023-04-10T07:08:38;101442.16;;;8.83;82.77
39265;BME280;42646;51.910;7.724;2023-04-10T07:11:06;101440.47;;;8.95;82.68
39265;BME280;42646;51.910;7.724;2023-04-10T07:13:35;101439.69;;;9.05;82.70
39265;BME280;42646;51.910;7.724;2023-04-10T07:16:06;101431.78;;;9.29;81.35
39265;BME280;42646;51.910;7.724;2023-04-10T07:18:35;101434.50;;;9.41;80.83
39265;BME280;42646;51.910;7.724;2023-04-10T07:21:09;101420.66;;;9.48;81.17
39265;BME280;42646;51.910;7.724;2023-04-10T07:23:37;101424.53;;;9.68;81.22
39265;BME280;42646;51.910;7.724;2023-04-10T07:26:06;101417.34;;;9.81;81.02
39265;BME280;42646;51.910;7.724;2023-04-10T07:28:33;101418.25;;;10.04;79.70
39265;BME280;42646;51.910;7.724;2023-04-10T07:31:02;101427.31;;;10.37;78.15
39265;BME280;42646;51.910;7.724;2023-04-10T07:33:30;101423.84;;;10.81;75.78
39265;BME280;42646;51.910;7.724;2023-04-10T07:35:59;101425.63;;;11.26;71.40
39265;BME280;42646;51.910;7.724;2023-04-10T07:38:30;101420.34;;;11.58;68.92
39265;BME280;42646;51.910;7.724;2023-04-10T07:40:58;101422.56;;;11.85;66.46
39265;BME280;42646;51.910;7.724;2023-04-10T07:43:27;101419.09;;;12.05;63.46
39265;BME280;42646;51.910;7.724;2023-04-10T07:45:55;101418.81;;;12.08;64.87
39265;BME280;42646;51.910;7.724;2023-04-10T07:48:23;101412.06;;;12.25;63.56
39265;BME280;42646;51.910;7.724;2023-04-10T07:50:51;101406.59;;;12.26;62.93
39265;BME280;42646;51.910;7.724;2023-04-10T07:53:20;101402.69;;;12.30;63.50
39265;BME280;42646;51.910;7.724;2023-04-10T07:55:49;101400.88;;;12.31;63.36
39265;BME280;42646;51.910;7.724;2023-04-10T07:58:21;101400.81;;;12.42;62.05
39265;BME280;42646;51.910;7.724;2023-04-10T08:00:51;101395.22;;;12.45;62.45
39265;BME280;42646;51.910;7.724;2023-04-10T08:03:19;101385.16;;;12.59;61.02
39265;BME280;42646;51.910;7.724;2023-04-10T08:05:49;101375.78;;;12.64;62.09
39265;BME280;42646;51.910;7.724;2023-04-10T08:08:17;101371.63;;;12.81;62.00
39265;BME280;42646;51.910;7.724;2023-04-10T08:10:45;101371.28;;;13.05;57.63
39265;BME280;42646;51.910;7.724;2023-04-10T08:13:14;101358.31;;;13.10;57.46
39265;BME280;42646;51.910;7.724;2023-04-10T08:15:41;101357.78;;;13.06;58.70
39265;BME280;42646;51.910;7.724;2023-04-10T08:18:10;101358.66;;;13.17;57.51
39265;BME280;42646;51.910;7.724;2023-04-10T08:20:37;101345.84;;;13.10;56.84
39265;BME280;42646;51.910;7.724;2023-04-10T08:23:05;101347.53;;;13.12;57.95
39265;BME280;42646;51.910;7.724;2023-04-10T08:25:54;101334.47;;;13.28;55.45
39265;BME280;42646;51.910;7.724;2023-04-10T08:28:23;101325.34;;;13.21;55.63
39265;BME280;42646;51.910;7.724;2023-04-10T08:30:52;101331.28;;;13.44;54.55
39265;BME280;42646;51.910;7.724;2023-04-10T08:33:20;101322.13;;;13.36;55.08
39265;BME280;42646;51.910;7.724;2023-04-10T08:35:49;101313.56;;;13.43;57.55
39265;BME280;42646;51.910;7.724;2023-04-10T08:38:17;101316.09;;;13.54;57.79
39265;BME280;42646;51.910;7.724;2023-04-10T08:40:46;101313.38;;;13.63;55.36
39265;BME280;42646;51.910;7.724;2023-04-10T08:43:40;101313.25;;;13.65;55.09
39265;BME280;42646;51.910;7.724;2023-04-10T08:46:10;101299.31;;;13.61;55.58
39265;BME280;42646;51.910;7.724;2023-04-10T08:48:43;101303.41;;;13.66;55.25
39265;BME280;42646;51.910;7.724;2023-04-10T08:51:14;101291.88;;;13.65;55.09
39265;BME280;42646;51.910;7.724;2023-04-10T08:53:54;101289.47;;;13.62;55.99
39265;BME280;42646;51.910;7.724;2023-04-10T08:56:25;101288.75;;;13.79;54.32
39265;BME280;42646;51.910;7.724;2023-04-10T08:58:55;101285.22;;;13.88;55.24
39265;BME280;42646;51.910;7.724;2023-04-10T09:01:23;101284.00;;;14.20;53.97
39265;BME280;42646;51.910;7.724;2023-04-10T09:03:51;101283.06;;;14.39;53.18
39265;BME280;42646;51.910;7.724;2023-04-10T09:06:21;101275.44;;;14.54;52.16
39265;BME280;42646;51.910;7.724;2023-04-10T09:08:51;101262.97;;;14.62;52.62
39265;BME280;42646;51.910;7.724;2023-04-10T09:11:19;101257.97;;;14.77;52.97
39265;BME280;42646;51.910;7.724;2023-04-10T09:13:46;101259.09;;;14.75;53.73
39265;BME280;42646;51.910;7.724;2023-04-10T09:16:15;101258.88;;;14.86;54.73
39265;BME280;42646;51.910;7.724;2023-04-10T09:18:45;101252.16;;;15.17;50.37
39265;BME280;42646;51.910;7.724;2023-04-10T09:21:14;101245.72;;;15.28;51.20
39265;BME280;42646;51.910;7.724;2023-04-10T09:23:43;101249.38;;;15.45;49.05
39265;BME280;42646;51.910;7.724;2023-04-10T09:26:24;101241.38;;;15.71;45.86
39265;BME280;42646;51.910;7.724;2023-04-10T09:28:59;101239.84;;;15.68;46.80
39265;BME280;42646;51.910;7.724;2023-04-10T09:31:31;101236.91;;;15.80;46.17
39265;BME280;42646;51.910;7.724;2023-04-10T09:34:10;101230.13;;;15.93;44.50
39265;BME280;42646;51.910;7.724;2023-04-10T09:36:38;101219.84;;;15.89;45.64
39265;BME280;42646;51.910;7.724;2023-04-10T09:39:09;101217.75;;;16.00;44.71
39265;BME280;42646;51.910;7.724;2023-04-10T09:41:49;101214.97;;;16.18;43.71
39265;BME280;42646;51.910;7.724;2023-04-10T09:44:28;101210.25;;;16.12;43.43
39265;BME280;42646;51.910;7.724;2023-04-10T09:46:58;101201.53;;;16.10;43.49
39265;BME280;42646;51.910;7.724;2023-04-10T09:49:25;101200.72;;;16.18;42.31
39265;BME280;42646;51.910;7.724;2023-04-10T09:51:53;101205.94;;;16.19;42.34
39265;BME280;42646;51.910;7.724;2023-04-10T09:54:34;101194.03;;;16.22;42.11
39265;BME280;42646;51.910;7.724;2023-04-10T09:57:04;101201.34;;;16.12;42.92
39265;BME280;42646;51.910;7.724;2023-04-10T09:59:35;101199.50;;;16.12;41.87
39265;BME280;42646;51.910;7.724;2023-04-10T10:02:10;101200.22;;;16.22;42.31
39265;BME280;42646;51.910;7.724;2023-04-10T10:04:44;101190.81;;;16.18;42.93
39265;BME280;42646;51.910;7.724;2023-04-10T10:07:14;101197.72;;;16.21;42.13
39265;BME280;42646;51.910;7.724;2023-04-10T10:09:46;101197.78;;;16.37;40.42
39265;BME280;42646;51.910;7.724;2023-04-10T10:12:15;101175.09;;;16.32;42.80
39265;BME280;42646;51.910;7.724;2023-04-10T10:14:51;101180.50;;;16.40;42.00
39265;BME280;42646;51.910;7.724;2023-04-10T10:17:23;101179.34;;;16.50;42.06
39265;BME280;42646;51.910;7.724;2023-04-10T10:20:00;101176.69;;;16.59;40.84
39265;BME280;42646;51.910;7.724;2023-04-10T10:22:57;101162.88;;;16.53;40.49
39265;BME280;42646;51.910;7.724;2023-04-10T10:25:26;101165.94;;;16.59;41.22
39265;BME280;42646;51.910;7.724;2023-04-10T10:27:54;101163.94;;;16.61;40.45
39265;BME280;42646;51.910;7.724;2023-04-10T10:30:22;101162.22;;;16.51;40.18
39265;BME280;42646;51.910;7.724;2023-04-10T10:32:58;101154.69;;;16.63;39.23
39265;BME280;42646;51.910;7.724;2023-04-10T10:35:29;101150.13;;;16.39;40.83
39265;BME280;42646;51.910;7.724;2023-04-10T10:37:57;101138.00;;;16.35;41.02
39265;BME280;42646;51.910;7.724;2023-04-10T10:40:30;101136.50;;;16.41;41.82
39265;BME280;42646;51.910;7.724;2023-04-10T10:43:06;101134.66;;;16.41;42.63
39265;BME280;42646;51.910;7.724;2023-04-10T10:45:39;101131.19;;;16.49;42.59
39265;BME280;42646;51.910;7.724;2023-04-10T10:48:12;101117.09;;;16.63;41.33
39265;BME280;42646;51.910;7.724;2023-04-10T10:50:53;101116.78;;;16.74;42.04
39265;BME280;42646;51.910;7.724;2023-04-10T10:53:33;101093.78;;;16.80;41.16
39265;BME280;42646;51.910;7.724;2023-04-10T10:56:32;101095.28;;;16.82;42.42
39265;BME280;42646;51.910;7.724;2023-04-10T10:59:00;101088.06;;;16.91;41.56
39265;BME280;42646;51.910;7.724;2023-04-10T11:01:28;101082.19;;;16.96;40.95
39265;BME280;42646;51.910;7.724;2023-04-10T11:03:57;101082.38;;;16.86;41.59
39265;BME280;42646;51.910;7.724;2023-04-10T11:06:50;101078.50;;;16.89;40.04
39265;BME280;42646;51.910;7.724;2023-04-10T11:09:45;101079.16;;;16.99;38.96
39265;BME280;42646;51.910;7.724;2023-04-10T11:15:51;101071.47;;;16.79;40.48
39265;BME280;42646;51.910;7.724;2023-04-10T11:22:02;101056.31;;;16.95;40.37
39265;BME280;42646;51.910;7.724;2023-04-10T11:24:53;101050.59;;;16.90;40.21
39265;BME280;42646;51.910;7.724;2023-04-10T11:27:39;101036.66;;;16.94;39.02
39265;BME280;42646;51.910;7.724;2023-04-10T11:30:28;101035.66;;;16.87;40.29
39265;BME280;42646;51.910;7.724;2023-04-10T11:32:57;101031.63;;;16.83;41.30
39265;BME280;42646;51.910;7.724;2023-04-10T11:35:26;101009.31;;;16.91;39.85
39265;BME280;42646;51.910;7.724;2023-04-10T11:38:09;101011.81;;;16.92;41.85
39265;BME280;42646;51.910;7.724;2023-04-10T11:40:55;101005.03;;;17.13;41.00
39265;BME280;42646;51.910;7.724;2023-04-10T11:43:24;100999.94;;;17.34;40.62
39265;BME280;42646;51.910;7.724;2023-04-10T11:45:59;100985.28;;;17.36;39.62
39265;BME280;42646;51.910;7.724;2023-04-10T11:48:27;100986.66;;;17.32;39.79
39265;BME280;42646;51.910;7.724;2023-04-10T11:50:55;100987.97;;;17.36;38.80
39265;BME280;42646;51.910;7.724;2023-04-10T11:53:26;100971.31;;;17.41;38.19
39265;BME280;42646;51.910;7.724;2023-04-10T11:55:55;100966.31;;;17.30;39.06
39265;BME280;42646;51.910;7.724;2023-04-10T11:58:24;100969.16;;;17.36;39.44
39265;BME280;42646;51.910;7.724;2023-04-10T12:00:59;100969.13;;;17.45;40.06
39265;BME280;42646;51.910;7.724;2023-04-10T12:03:34;100960.69;;;17.48;38.67
39265;BME280;42646;51.910;7.724;2023-04-10T12:06:06;100957.34;;;17.46;39.58
39265;BME280;42646;51.910;7.724;2023-04-10T12:08:37;100965.69;;;17.59;37.38
39265;BME280;42646;51.910;7.724;2023-04-10T12:11:07;100948.22;;;17.55;38.86
39265;BME280;42646;51.910;7.724;2023-04-10T12:13:35;100945.38;;;17.56;38.46
39265;BME280;42646;51.910;7.724;2023-04-10T12:16:07;100938.78;;;17.59;38.56
39265;BME280;42646;51.910;7.724;2023-04-10T12:18:36;100939.59;;;17.68;37.40
39265;BME280;42646;51.910;7.724;2023-04-10T12:21:08;100941.91;;;17.71;37.72
39265;BME280;42646;51.910;7.724;2023-04-10T12:23:38;100935.38;;;17.65;37.47
39265;BME280;42646;51.910;7.724;2023-04-10T12:26:08;100934.66;;;17.71;38.61
39265;BME280;42646;51.910;7.724;2023-04-10T12:28:37;100930.41;;;17.85;38.24
39265;BME280;42646;51.910;7.724;2023-04-10T12:31:06;100920.84;;;17.82;37.41
39265;BME280;42646;51.910;7.724;2023-04-10T12:33:34;100926.41;;;17.81;38.29
39265;BME280;42646;51.910;7.724;2023-04-10T12:36:02;100916.34;;;17.98;37.72
39265;BME280;42646;51.910;7.724;2023-04-10T12:38:38;100897.31;;;17.99;37.24
39265;BME280;42646;51.910;7.724;2023-04-10T12:41:07;100908.56;;;18.03;37.47
39265;BME280;42646;51.910;7.724;2023-04-10T12:43:36;100901.38;;;18.18;37.13
39265;BME280;42646;51.910;7.724;2023-04-10T12:46:06;100900.44;;;18.26;36.53
39265;BME280;42646;51.910;7.724;2023-04-10T12:48:34;100898.66;;;18.03;37.08
39265;BME280;42646;51.910;7.724;2023-04-10T12:51:02;100887.56;;;18.21;37.59
39265;BME280;42646;51.910;7.724;2023-04-10T12:53:30;100893.28;;;18.18;37.73
39265;BME280;42646;51.910;7.724;2023-04-10T12:56:01;100888.00;;;18.25;37.82
39265;BME280;42646;51.910;7.724;2023-04-10T12:58:30;100877.81;;;18.35;37.34
39265;BME280;42646;51.910;7.724;2023-04-10T13:01:02;100878.66;;;18.35;37.64
39265;BME280;42646;51.910;7.724;2023-04-10T13:03:32;100858.88;;;18.28;37.25
39265;BME280;42646;51.910;7.724;2023-04-10T13:06:02;100860.72;;;18.42;36.85
39265;BME280;42646;51.910;7.724;2023-04-10T13:08:31;100855.53;;;18.41;36.57
39265;BME280;42646;51.910;7.724;2023-04-10T13:11:00;100857.09;;;18.35;36.74
39265;BME280;42646;51.910;7.724;2023-04-10T13:13:29;100837.03;;;18.38;37.30
39265;BME280;42646;51.910;7.724;2023-04-10T13:16:01;100836.56;;;18.49;37.33
39265;BME280;42646;51.910;7.724;2023-04-10T13:18:29;100830.56;;;18.62;36.22
39265;BME280;42646;51.910;7.724;2023-04-10T13:20:57;100815.97;;;18.56;37.55
39265;BME280;42646;51.910;7.724;2023-04-10T13:23:25;100816.97;;;18.55;36.61
39265;BME280;42646;51.910;7.724;2023-04-10T13:25:53;100808.88;;;18.55;37.23
39265;BME280;42646;51.910;7.724;2023-04-10T13:28:23;100802.38;;;18.50;36.93
39265;BME280;42646;51.910;7.724;2023-04-10T13:30:51;100793.84;;;18.76;37.02